createdAt,value
2022-10-15T00:00:12.220Z,100288.21
2022-10-15T00:03:05.954Z,100288.65
2022-10-15T00:05:41.821Z,100286.48
2022-10-15T00:08:15.988Z,100282.93
2022-10-15T00:10:49.114Z,100285.71
2022-10-15T00:13:22.508Z,100286.46
2022-10-15T00:15:55.900Z,100282.42
2022-10-15T00:18:29.382Z,100282.99
2022-10-15T00:21:03.393Z,100281.27
2022-10-15T00:23:37.256Z,100281.08
2022-10-15T00:26:12.920Z,100279.48
2022-10-15T00:28:50.260Z,100279.82
2022-10-15T00:31:28.578Z,100274.80
2022-10-15T00:34:04.196Z,100272.75
2022-10-15T00:36:38.460Z,100274.90
2022-10-15T00:39:12.396Z,100271.55
2022-10-15T00:41:47.037Z,100273.92
2022-10-15T00:44:51.225Z,100276.19
2022-10-15T00:47:29.222Z,100273.40
2022-10-15T00:50:09.000Z,100270.17
2022-10-15T00:52:48.112Z,100263.56
2022-10-15T00:55:25.519Z,100264.67
2022-10-15T00:58:00.881Z,100265.27
2022-10-15T01:00:35.369Z,100260.74
2022-10-15T01:03:09.036Z,100260.91
2022-10-15T01:05:44.735Z,100260.88
2022-10-15T01:08:18.112Z,100261.06
2022-10-15T01:10:57.777Z,100257.70
2022-10-15T01:13:40.181Z,100256.64
2022-10-15T01:16:21.858Z,100256.00
2022-10-15T01:19:01.764Z,100253.34
2022-10-15T01:21:41.124Z,100250.11
2022-10-15T01:24:37.557Z,100255.85
2022-10-15T01:27:43.406Z,100254.82
2022-10-15T01:30:32.003Z,100252.10
2022-10-15T01:33:41.349Z,100250.49
2022-10-15T01:36:27.370Z,100247.81
2022-10-15T01:39:06.807Z,100241.38
2022-10-15T01:41:45.559Z,100241.73
2022-10-15T01:44:24.001Z,100244.74
2022-10-15T01:47:22.901Z,100244.46
2022-10-15T01:49:59.062Z,100240.29
2022-10-15T01:52:39.097Z,100241.32
2022-10-15T01:55:17.277Z,100238.61
2022-10-15T01:57:51.643Z,100242.22
2022-10-15T02:00:25.544Z,100240.57
2022-10-15T02:03:03.295Z,100241.11
2022-10-15T02:05:41.729Z,100234.88
2022-10-15T02:08:28.789Z,100226.49
2022-10-15T02:11:11.925Z,100228.95
2022-10-15T02:13:58.324Z,100225.33
2022-10-15T02:16:40.026Z,100222.62
2022-10-15T02:19:19.709Z,100217.68
2022-10-15T02:22:00.264Z,100218.77
2022-10-15T02:24:41.533Z,100217.07
2022-10-15T02:27:17.691Z,100219.98
2022-10-15T02:29:53.136Z,100216.38
2022-10-15T02:32:28.029Z,100211.68
2022-10-15T02:35:04.442Z,100208.98
2022-10-15T02:37:40.757Z,100205.38
2022-10-15T02:40:16.218Z,100203.56
2022-10-15T02:42:50.822Z,100200.42
2022-10-15T02:45:25.024Z,100201.76
2022-10-15T02:47:58.558Z,100202.48
2022-10-15T02:50:32.023Z,100200.98
2022-10-15T02:53:05.584Z,100197.05
2022-10-15T02:55:39.964Z,100197.27
2022-10-15T02:58:13.524Z,100199.88
2022-10-15T03:00:49.251Z,100199.83
2022-10-15T03:03:22.858Z,100204.44
2022-10-15T03:05:56.264Z,100201.52
2022-10-15T03:08:30.025Z,100202.09
2022-10-15T03:11:04.832Z,100197.16
2022-10-15T03:13:41.476Z,100196.46
2022-10-15T03:16:15.255Z,100194.60
2022-10-15T03:18:51.093Z,100198.70
2022-10-15T03:21:24.509Z,100201.00
2022-10-15T03:23:58.438Z,100198.38
2022-10-15T03:26:31.810Z,100192.81
2022-10-15T03:29:05.299Z,100198.27
2022-10-15T03:31:42.048Z,100201.45
2022-10-15T03:34:15.913Z,100199.84
2022-10-15T03:36:49.452Z,100197.27
2022-10-15T03:39:23.275Z,100193.63
2022-10-15T03:42:00.031Z,100191.95
2022-10-15T03:44:40.663Z,100194.92
2022-10-15T03:47:17.389Z,100194.31
2022-10-15T03:49:53.304Z,100191.61
2022-10-15T03:52:26.761Z,100182.73
2022-10-15T03:55:00.322Z,100175.73
2022-10-15T03:57:33.849Z,100174.22
2022-10-15T04:00:14.512Z,100172.06
2022-10-15T04:02:48.453Z,100170.70
2022-10-15T04:05:31.308Z,100170.31
2022-10-15T04:08:11.187Z,100167.46
2022-10-15T04:10:46.838Z,100163.89
2022-10-15T04:13:20.437Z,100162.11
2022-10-15T04:15:53.810Z,100163.27
2022-10-15T04:18:27.407Z,100161.17
2022-10-15T04:21:04.134Z,100159.91
2022-10-15T04:23:39.365Z,100160.80
2022-10-15T04:26:29.936Z,100158.73
2022-10-15T04:29:05.369Z,100156.75
2022-10-15T04:31:39.223Z,100159.30
2022-10-15T04:34:12.716Z,100158.71
2022-10-15T04:36:46.234Z,100164.08
2022-10-15T04:39:24.679Z,100163.02
2022-10-15T04:41:58.117Z,100159.05
2022-10-15T04:44:34.702Z,100163.53
2022-10-15T04:47:08.032Z,100161.23
2022-10-15T04:49:59.517Z,100161.02
2022-10-15T04:52:52.126Z,100159.33
2022-10-15T04:55:25.396Z,100158.02
2022-10-15T04:58:02.686Z,100159.42
2022-10-15T05:00:36.938Z,100158.16
2022-10-15T05:06:12.625Z,100156.46
2022-10-15T05:08:46.514Z,100157.00
2022-10-15T05:11:27.243Z,100158.61
2022-10-15T05:14:07.430Z,100159.58
2022-10-15T05:16:42.680Z,100158.92
2022-10-15T05:19:17.289Z,100160.83
2022-10-15T05:21:50.682Z,100158.82
2022-10-15T05:24:29.855Z,100162.39
2022-10-15T05:27:25.898Z,100161.09
2022-10-15T05:29:59.742Z,100159.92
2022-10-15T05:32:41.715Z,100162.55
2022-10-15T05:35:17.614Z,100164.33
2022-10-15T05:38:10.084Z,100164.41
2022-10-15T05:40:51.179Z,100169.20
2022-10-15T05:43:27.568Z,100170.32
2022-10-15T05:46:03.555Z,100170.64
2022-10-15T05:48:37.149Z,100172.26
2022-10-15T05:51:13.754Z,100171.70
2022-10-15T05:53:47.782Z,100171.89
2022-10-15T05:56:21.774Z,100170.89
2022-10-15T05:58:55.669Z,100169.64
2022-10-15T06:01:29.438Z,100164.98
2022-10-15T06:04:02.589Z,100164.91
2022-10-15T06:06:36.632Z,100169.53
2022-10-15T06:09:10.133Z,100174.45
2022-10-15T06:11:44.277Z,100175.85
2022-10-15T06:14:21.897Z,100174.82
2022-10-15T06:16:55.418Z,100176.00
2022-10-15T06:19:28.566Z,100174.20
2022-10-15T06:22:01.962Z,100170.39
2022-10-15T06:24:35.484Z,100172.16
2022-10-15T06:27:11.958Z,100174.88
2022-10-15T06:29:45.109Z,100176.29
2022-10-15T06:32:19.137Z,100177.43
2022-10-15T06:34:52.677Z,100179.09
2022-10-15T06:37:26.406Z,100178.89
2022-10-15T06:40:03.077Z,100181.88
2022-10-15T06:42:36.762Z,100181.47
2022-10-15T06:45:12.430Z,100183.88
2022-10-15T06:47:46.600Z,100190.07
2022-10-15T06:50:19.857Z,100190.58
2022-10-15T06:52:52.965Z,100192.39
2022-10-15T06:55:26.811Z,100194.27
2022-10-15T06:58:00.196Z,100196.40
2022-10-15T07:03:15.041Z,100193.44
2022-10-15T07:05:48.248Z,100194.42
2022-10-15T07:08:21.871Z,100197.02
2022-10-15T07:10:55.006Z,100197.94
2022-10-15T07:13:30.661Z,100196.62
2022-10-15T07:16:09.304Z,100197.80
2022-10-15T07:18:42.856Z,100194.09
2022-10-15T07:21:15.967Z,100190.64
2022-10-15T07:23:49.154Z,100192.27
2022-10-15T07:26:22.707Z,100195.48
2022-10-15T07:28:56.693Z,100195.50
2022-10-15T07:31:30.484Z,100196.52
2022-10-15T07:34:03.840Z,100193.45
2022-10-15T07:36:37.430Z,100193.16
2022-10-15T07:39:12.181Z,100190.29
2022-10-15T07:41:45.990Z,100183.22
2022-10-15T07:44:18.905Z,100183.65
2022-10-15T07:46:52.262Z,100182.85
2022-10-15T07:49:25.591Z,100189.38
2022-10-15T07:51:59.210Z,100192.73
2022-10-15T07:54:36.193Z,100188.26
2022-10-15T07:57:09.719Z,100186.50
2022-10-15T07:59:42.969Z,100181.89
2022-10-15T08:02:18.654Z,100179.23
2022-10-15T08:04:52.216Z,100179.80
2022-10-15T08:07:26.125Z,100182.31
2022-10-15T08:09:59.830Z,100180.98
2022-10-15T08:12:33.192Z,100183.10
2022-10-15T08:15:08.111Z,100181.23
2022-10-15T08:17:41.492Z,100180.11
2022-10-15T08:20:16.843Z,100178.60
2022-10-15T08:22:50.221Z,100176.63
2022-10-15T08:25:23.852Z,100179.95
2022-10-15T08:27:58.844Z,100178.23
2022-10-15T08:30:32.632Z,100180.17
2022-10-15T08:33:06.084Z,100177.55
2022-10-15T08:35:41.996Z,100178.67
2022-10-15T08:38:19.015Z,100172.04
2022-10-15T08:40:55.639Z,100163.51
2022-10-15T08:43:32.520Z,100157.09
2022-10-15T08:46:11.669Z,100152.03
2022-10-15T08:48:47.951Z,100155.95
2022-10-15T08:51:24.505Z,100155.41
2022-10-15T08:54:01.393Z,100151.74
2022-10-15T08:56:40.104Z,100151.49
2022-10-15T08:59:27.987Z,100150.05
2022-10-15T09:02:04.995Z,100152.02
2022-10-15T09:04:48.958Z,100153.80
2022-10-15T09:07:31.795Z,100153.99
2022-10-15T09:10:17.639Z,100151.68
2022-10-15T09:12:59.102Z,100150.74
2022-10-15T09:15:39.298Z,100149.44
2022-10-15T09:18:18.962Z,100156.93
2022-10-15T09:20:54.706Z,100158.24
2022-10-15T09:23:30.910Z,100159.61
2022-10-15T09:26:15.462Z,100161.17
2022-10-15T09:28:54.570Z,100164.31
2022-10-15T09:31:31.874Z,100165.00
2022-10-15T09:34:14.990Z,100168.74
2022-10-15T09:36:54.186Z,100168.04
2022-10-15T09:39:45.362Z,100163.05
2022-10-15T09:42:31.050Z,100161.21
2022-10-15T09:45:08.308Z,100156.23
2022-10-15T09:47:44.966Z,100161.16
2022-10-15T09:53:13.829Z,100166.27
2022-10-15T09:55:53.360Z,100160.09
2022-10-15T09:58:39.093Z,100159.60
2022-10-15T10:01:22.355Z,100161.65
2022-10-15T10:04:12.162Z,100160.88
2022-10-15T10:06:52.888Z,100157.82
2022-10-15T10:09:30.701Z,100151.20
2022-10-15T10:12:09.029Z,100151.91
2022-10-15T10:14:48.984Z,100143.86
2022-10-15T10:17:24.787Z,100139.18
2022-10-15T10:20:17.532Z,100135.80
2022-10-15T10:22:52.882Z,100130.58
2022-10-15T10:25:33.021Z,100131.81
2022-10-15T10:28:18.027Z,100129.46
2022-10-15T10:31:04.370Z,100123.39
2022-10-15T10:33:45.429Z,100121.23
2022-10-15T10:36:30.981Z,100120.66
2022-10-15T10:39:13.792Z,100123.15
2022-10-15T10:41:57.208Z,100126.08
2022-10-15T10:44:35.792Z,100127.39
2022-10-15T10:47:20.654Z,100126.89
2022-10-15T10:49:57.541Z,100123.05
2022-10-15T10:52:32.959Z,100116.89
2022-10-15T10:55:18.314Z,100112.33
2022-10-15T10:57:55.144Z,100117.37
2022-10-15T11:00:40.683Z,100112.60
2022-10-15T11:03:28.031Z,100112.59
2022-10-15T11:06:22.319Z,100111.05
2022-10-15T11:09:06.750Z,100109.17
2022-10-15T11:11:51.901Z,100106.65
2022-10-15T11:14:39.222Z,100100.38
2022-10-15T11:17:24.271Z,100101.52
2022-10-15T11:20:26.885Z,100103.83
2022-10-15T11:23:17.553Z,100106.89
2022-10-15T11:26:02.995Z,100109.79
2022-10-15T11:29:00.322Z,100118.41
2022-10-15T11:31:49.344Z,100112.52
2022-10-15T11:34:51.389Z,100114.76
2022-10-15T11:37:41.601Z,100115.45
2022-10-15T11:40:34.951Z,100111.45
2022-10-15T11:43:20.005Z,100110.08
2022-10-15T11:46:10.357Z,100106.34
2022-10-15T11:48:57.553Z,100105.33
2022-10-15T11:51:41.059Z,100107.91
2022-10-15T11:54:28.232Z,100106.02
2022-10-15T11:57:06.020Z,100111.66
2022-10-15T11:59:49.110Z,100107.83
2022-10-15T12:02:26.310Z,100103.77
2022-10-15T12:05:03.265Z,100106.45
2022-10-15T12:07:41.623Z,100109.14
2022-10-15T12:10:32.798Z,100107.24
2022-10-15T12:13:11.368Z,100106.45
2022-10-15T12:15:44.475Z,100105.45
2022-10-15T12:18:27.129Z,100102.44
2022-10-15T12:21:00.407Z,100104.64
2022-10-15T12:23:44.722Z,100101.04
2022-10-15T12:26:33.933Z,100098.44
2022-10-15T12:29:23.358Z,100094.62
2022-10-15T12:31:57.662Z,100098.13
2022-10-15T12:34:41.473Z,100096.02
2022-10-15T12:37:23.347Z,100096.70
2022-10-15T12:40:02.117Z,100093.58
2022-10-15T12:42:37.535Z,100095.63
2022-10-15T12:45:21.658Z,100094.33
2022-10-15T12:47:58.972Z,100092.44
2022-10-15T12:50:34.172Z,100091.03
2022-10-15T12:53:30.278Z,100093.80
2022-10-15T12:56:27.403Z,100092.44
2022-10-15T12:59:00.928Z,100090.52
2022-10-15T13:01:54.028Z,100092.73
2022-10-15T13:04:38.470Z,100090.51
2022-10-15T13:07:17.108Z,100090.08
2022-10-15T13:09:50.896Z,100090.70
2022-10-15T13:12:32.406Z,100086.02
2022-10-15T13:15:08.168Z,100090.45
2022-10-15T13:17:42.818Z,100088.96
2022-10-15T13:20:35.246Z,100085.75
2022-10-15T13:23:31.181Z,100086.77
2022-10-15T13:26:22.511Z,100089.38
2022-10-15T13:28:59.272Z,100089.87
2022-10-15T13:31:37.171Z,100092.73
2022-10-15T13:34:18.142Z,100093.14
2022-10-15T13:36:54.801Z,100094.98
2022-10-15T13:42:16.261Z,100096.04
2022-10-15T13:45:04.610Z,100099.98
2022-10-15T13:47:39.237Z,100096.71
2022-10-15T13:50:22.061Z,100098.29
2022-10-15T13:52:59.929Z,100100.11
2022-10-15T13:55:36.794Z,100101.13
2022-10-15T13:58:24.984Z,100098.53
2022-10-15T14:01:05.359Z,100099.33
2022-10-15T14:03:40.223Z,100098.73
2022-10-15T14:06:20.535Z,100098.86
2022-10-15T14:08:56.348Z,100102.27
2022-10-15T14:11:39.749Z,100102.27
2022-10-15T14:14:30.590Z,100100.02
2022-10-15T14:17:07.086Z,100103.39
2022-10-15T14:19:41.807Z,100100.73
2022-10-15T14:22:24.136Z,100102.55
2022-10-15T14:24:58.083Z,100105.42
2022-10-15T14:27:32.655Z,100103.17
2022-10-15T14:30:15.352Z,100105.66
2022-10-15T14:32:52.393Z,100109.45
2022-10-15T14:35:33.457Z,100106.85
2022-10-15T14:38:17.361Z,100106.91
2022-10-15T14:41:06.473Z,100108.64
2022-10-15T14:43:41.239Z,100112.37
2022-10-15T14:46:20.773Z,100113.84
2022-10-15T14:48:54.490Z,100113.96
2022-10-15T14:51:29.062Z,100111.98
2022-10-15T14:54:02.341Z,100109.52
2022-10-15T14:56:36.932Z,100106.14
2022-10-15T14:59:18.846Z,100111.06
2022-10-15T15:02:02.916Z,100114.17
2022-10-15T15:04:53.374Z,100116.77
2022-10-15T15:07:27.591Z,100115.77
2022-10-15T15:10:01.497Z,100115.92
2022-10-15T15:12:36.219Z,100117.02
2022-10-15T15:15:17.252Z,100117.27
2022-10-15T15:17:52.356Z,100120.28
2022-10-15T15:20:27.174Z,100120.65
2022-10-15T15:23:01.092Z,100123.86
2022-10-15T15:25:37.358Z,100123.52
2022-10-15T15:28:17.262Z,100126.20
2022-10-15T15:30:57.774Z,100131.64
2022-10-15T15:33:32.260Z,100131.00
2022-10-15T15:36:09.572Z,100127.84
2022-10-15T15:38:43.888Z,100131.56
2022-10-15T15:41:20.006Z,100126.89
2022-10-15T15:43:55.316Z,100128.44
2022-10-15T15:46:29.378Z,100131.30
2022-10-15T15:49:02.797Z,100132.35
2022-10-15T15:51:36.442Z,100130.95
2022-10-15T15:54:11.120Z,100126.25
2022-10-15T15:59:23.293Z,100127.98
2022-10-15T16:01:57.235Z,100133.67
2022-10-15T16:04:31.628Z,100132.67
2022-10-15T16:07:06.231Z,100134.64
2022-10-15T16:09:40.302Z,100132.83
2022-10-15T16:12:14.921Z,100135.42
2022-10-15T16:14:48.505Z,100135.75
2022-10-15T16:17:21.914Z,100141.15
2022-10-15T16:19:55.072Z,100140.66
2022-10-15T16:22:28.188Z,100140.86
2022-10-15T16:25:01.469Z,100147.78
2022-10-15T16:27:35.924Z,100151.34
2022-10-15T16:30:11.344Z,100153.20
2022-10-15T16:32:44.673Z,100161.22
2022-10-15T16:35:18.725Z,100163.27
2022-10-15T16:37:56.641Z,100164.54
2022-10-15T16:40:30.370Z,100166.29
2022-10-15T16:43:03.665Z,100170.92
2022-10-15T16:45:37.034Z,100177.46
2022-10-15T16:48:10.633Z,100177.65
2022-10-15T16:50:44.281Z,100183.64
2022-10-15T16:53:18.408Z,100189.31
2022-10-15T16:55:52.113Z,100187.84
2022-10-15T16:58:26.764Z,100196.02
2022-10-15T17:01:03.775Z,100201.16
2022-10-15T17:03:39.781Z,100200.13
2022-10-15T17:06:16.665Z,100199.54
2022-10-15T17:08:51.959Z,100199.27
2022-10-15T17:11:27.447Z,100198.27
2022-10-15T17:14:04.311Z,100196.98
2022-10-15T17:16:41.457Z,100192.03
2022-10-15T17:19:16.796Z,100192.40
2022-10-15T17:21:50.089Z,100200.11
2022-10-15T17:24:24.242Z,100201.45
2022-10-15T17:26:58.630Z,100201.41
2022-10-15T17:29:33.520Z,100203.94
2022-10-15T17:32:07.484Z,100204.04
2022-10-15T17:34:42.289Z,100206.33
2022-10-15T17:37:16.502Z,100202.36
2022-10-15T17:39:52.282Z,100202.59
2022-10-15T17:42:27.749Z,100203.98
2022-10-15T17:45:01.785Z,100204.77
2022-10-15T17:47:35.881Z,100205.63
2022-10-15T17:50:13.932Z,100208.98
2022-10-15T17:52:49.042Z,100210.90
2022-10-15T17:55:24.413Z,100210.19
2022-10-15T17:57:58.660Z,100207.60
2022-10-15T18:00:33.601Z,100209.09
2022-10-15T18:03:09.504Z,100206.17
2022-10-15T18:05:44.230Z,100209.75
2022-10-15T18:08:19.295Z,100205.98
2022-10-15T18:10:56.391Z,100207.52
2022-10-15T18:13:32.897Z,100209.36
2022-10-15T18:16:12.333Z,100211.08
2022-10-15T18:18:48.015Z,100215.81
2022-10-15T18:21:26.198Z,100219.45
2022-10-15T18:24:03.865Z,100224.22
2022-10-15T18:26:39.246Z,100222.66
2022-10-15T18:29:14.182Z,100224.61
2022-10-15T18:31:56.307Z,100226.25
2022-10-15T18:34:34.887Z,100226.58
2022-10-15T18:37:09.632Z,100231.58
2022-10-15T18:39:43.862Z,100233.13
2022-10-15T18:42:18.612Z,100237.95
2022-10-15T18:44:53.556Z,100240.70
2022-10-15T18:47:28.780Z,100238.20
2022-10-15T18:50:04.107Z,100235.07
2022-10-15T18:52:40.248Z,100234.61
2022-10-15T18:55:15.766Z,100236.27
2022-10-15T18:57:52.127Z,100239.67
2022-10-15T19:00:26.375Z,100242.92
2022-10-15T19:03:01.035Z,100250.15
2022-10-15T19:05:36.497Z,100251.20
2022-10-15T19:08:11.490Z,100256.94
2022-10-15T19:10:45.386Z,100258.77
2022-10-15T19:13:19.225Z,100259.73
2022-10-15T19:15:52.772Z,100259.70
2022-10-15T19:18:26.413Z,100263.78
2022-10-15T19:20:59.948Z,100267.10
2022-10-15T19:23:34.100Z,100267.92
2022-10-15T19:26:10.496Z,100267.04
2022-10-15T19:28:44.526Z,100267.95
2022-10-15T19:31:23.493Z,100268.45
2022-10-15T19:33:59.355Z,100273.00
2022-10-15T19:36:36.809Z,100274.50
2022-10-15T19:39:13.267Z,100274.83
2022-10-15T19:41:47.835Z,100275.98
2022-10-15T19:44:26.215Z,100280.80
2022-10-15T19:47:00.326Z,100282.66
2022-10-15T19:49:34.140Z,100277.14
2022-10-15T19:52:08.498Z,100281.09
2022-10-15T19:54:43.707Z,100283.55
2022-10-15T19:57:17.457Z,100289.52
2022-10-15T19:59:51.207Z,100291.19
2022-10-15T20:02:25.121Z,100295.10
2022-10-15T20:05:00.380Z,100298.66
2022-10-15T20:07:34.778Z,100303.11
2022-10-15T20:10:11.030Z,100303.16
2022-10-15T20:15:21.740Z,100307.35
2022-10-15T20:17:56.074Z,100308.96
2022-10-15T20:20:29.781Z,100309.70
2022-10-15T20:23:03.976Z,100309.20
2022-10-15T20:25:38.126Z,100311.56
2022-10-15T20:28:12.943Z,100311.56
2022-10-15T20:30:47.854Z,100317.05
2022-10-15T20:33:21.856Z,100319.80
2022-10-15T20:35:55.782Z,100321.10
2022-10-15T20:38:29.233Z,100323.56
2022-10-15T20:41:07.824Z,100327.52
2022-10-15T20:43:41.925Z,100331.19
2022-10-15T20:46:19.457Z,100329.76
2022-10-15T20:48:53.858Z,100332.55
2022-10-15T20:51:29.081Z,100330.47
2022-10-15T20:54:03.823Z,100330.03
2022-10-15T20:56:37.860Z,100330.48
2022-10-15T20:59:12.154Z,100332.11
2022-10-15T21:01:46.024Z,100337.10
2022-10-15T21:04:19.768Z,100336.45
2022-10-15T21:06:54.314Z,100335.40
2022-10-15T21:09:28.201Z,100339.13
2022-10-15T21:12:01.557Z,100341.26
2022-10-15T21:14:35.283Z,100341.64
2022-10-15T21:17:09.620Z,100334.91
2022-10-15T21:19:43.742Z,100338.85
2022-10-15T21:22:17.125Z,100342.41
2022-10-15T21:24:50.444Z,100348.50
2022-10-15T21:27:24.138Z,100350.52
2022-10-15T21:29:57.738Z,100352.48
2022-10-15T21:32:32.225Z,100354.95
2022-10-15T21:35:05.659Z,100356.66
2022-10-15T21:37:40.365Z,100358.90
2022-10-15T21:40:15.325Z,100357.84
2022-10-15T21:42:49.119Z,100363.23
2022-10-15T21:45:22.649Z,100368.27
2022-10-15T21:47:56.616Z,100370.09
2022-10-15T21:50:30.705Z,100370.95
2022-10-15T21:53:05.019Z,100374.36
2022-10-15T21:55:38.791Z,100377.36
2022-10-15T21:58:12.096Z,100375.00
2022-10-15T22:00:45.444Z,100372.81
2022-10-15T22:03:18.921Z,100377.20
2022-10-15T22:05:52.771Z,100377.98
2022-10-15T22:08:26.625Z,100379.46
2022-10-15T22:11:11.263Z,100378.13
2022-10-15T22:13:46.025Z,100377.91
2022-10-15T22:16:20.648Z,100377.80
2022-10-15T22:18:54.542Z,100381.31
2022-10-15T22:21:29.295Z,100382.85
2022-10-15T22:24:05.671Z,100386.41
2022-10-15T22:26:40.816Z,100384.93
2022-10-15T22:29:20.770Z,100386.34
2022-10-15T22:31:55.528Z,100389.20
2022-10-15T22:34:29.113Z,100387.39
2022-10-15T22:37:02.100Z,100387.02
2022-10-15T22:39:35.381Z,100387.86
2022-10-15T22:42:08.616Z,100388.73
2022-10-15T22:44:42.373Z,100383.80
2022-10-15T22:47:15.966Z,100383.69
2022-10-15T22:49:49.717Z,100387.26
2022-10-15T22:52:23.341Z,100387.27
2022-10-15T22:54:57.124Z,100388.36
2022-10-15T22:57:30.897Z,100389.17
2022-10-15T23:00:05.785Z,100386.88
2022-10-15T23:02:39.118Z,100386.60
2022-10-15T23:05:12.897Z,100389.72
2022-10-15T23:07:46.979Z,100392.73
2022-10-15T23:10:20.699Z,100391.69
2022-10-15T23:12:54.421Z,100392.29
2022-10-15T23:15:28.166Z,100389.33
2022-10-15T23:18:01.833Z,100386.42
2022-10-15T23:20:37.253Z,100388.13
2022-10-15T23:23:10.796Z,100387.98
2022-10-15T23:25:44.499Z,100385.98
2022-10-15T23:28:18.167Z,100387.79
2022-10-15T23:30:52.008Z,100389.66
2022-10-15T23:33:25.863Z,100391.14
2022-10-15T23:36:04.680Z,100401.55
2022-10-15T23:38:38.106Z,100404.02
2022-10-15T23:41:12.371Z,100405.84
2022-10-15T23:43:45.756Z,100404.67
2022-10-15T23:46:19.373Z,100405.61
2022-10-15T23:48:53.326Z,100405.39
2022-10-15T23:51:29.245Z,100406.70
2022-10-15T23:54:03.750Z,100406.04
2022-10-15T23:56:38.786Z,100407.41
2022-10-15T23:59:12.306Z,100410.80
